sensor_id;sensor_type;location;lat;lon;timestamp;pressure;altitude;pressure_sealevel;temperature;humidity
20628;BME280;10473;42.734;24.258;2024-03-22T00:00:01;92196.22;;;4.67;51.01
20628;BME280;10473;42.734;24.258;2024-03-22T00:02:27;92190.16;;;4.60;51.13
20628;BME280;10473;42.734;24.258;2024-03-22T00:04:53;92187.34;;;4.46;50.13
20628;BME280;10473;42.734;24.258;2024-03-22T00:07:18;92193.97;;;4.64;49.98
20628;BME280;10473;42.734;24.258;2024-03-22T00:09:44;92199.84;;;4.49;50.63
20628;BME280;10473;42.734;24.258;2024-03-22T00:12:10;92201.69;;;4.24;50.66
20628;BME280;10473;42.734;24.258;2024-03-22T00:14:35;92209.53;;;3.59;52.26
20628;BME280;10473;42.734;24.258;2024-03-22T00:17:01;92206.22;;;3.25;52.60
20628;BME280;10473;42.734;24.258;2024-03-22T00:19:26;92211.44;;;3.40;51.84
20628;BME280;10473;42.734;24.258;2024-03-22T00:21:52;92204.56;;;3.57;51.46
20628;BME280;10473;42.734;24.258;2024-03-22T00:24:17;92201.34;;;3.80;51.58
20628;BME280;10473;42.734;24.258;2024-03-22T00:26:43;92202.72;;;4.07;50.30
20628;BME280;10473;42.734;24.258;2024-03-22T00:29:08;92201.13;;;4.06;49.46
20628;BME280;10473;42.734;24.258;2024-03-22T00:31:34;92209.47;;;4.00;50.87
20628;BME280;10473;42.734;24.258;2024-03-22T00:33:59;92204.84;;;3.95;51.04
20628;BME280;10473;42.734;24.258;2024-03-22T00:36:25;92201.63;;;3.93;51.85
20628;BME280;10473;42.734;24.258;2024-03-22T00:38:50;92206.84;;;4.16;51.47
20628;BME280;10473;42.734;24.258;2024-03-22T00:41:16;92216.06;;;3.69;52.58
20628;BME280;10473;42.734;24.258;2024-03-22T00:43:41;92208.34;;;3.94;51.82
20628;BME280;10473;42.734;24.258;2024-03-22T00:46:07;92212.88;;;3.76;51.90
20628;BME280;10473;42.734;24.258;2024-03-22T00:48:33;92211.88;;;3.85;52.32
20628;BME280;10473;42.734;24.258;2024-03-22T00:51:00;92209.47;;;3.91;52.41
20628;BME280;10473;42.734;24.258;2024-03-22T00:53:26;92210.31;;;3.51;53.91
20628;BME280;10473;42.734;24.258;2024-03-22T00:55:51;92208.09;;;3.64;53.56
20628;BME280;10473;42.734;24.258;2024-03-22T00:58:20;92208.44;;;3.37;53.63
20628;BME280;10473;42.734;24.258;2024-03-22T01:00:46;92206.50;;;3.47;53.32
20628;BME280;10473;42.734;24.258;2024-03-22T01:03:12;92208.59;;;3.27;54.42
20628;BME280;10473;42.734;24.258;2024-03-22T01:05:38;92210.97;;;3.20;54.67
20628;BME280;10473;42.734;24.258;2024-03-22T01:08:05;92209.72;;;3.41;53.42
20628;BME280;10473;42.734;24.258;2024-03-22T01:10:31;92215.16;;;3.21;55.66
20628;BME280;10473;42.734;24.258;2024-03-22T01:12:56;92219.94;;;3.33;54.26
20628;BME280;10473;42.734;24.258;2024-03-22T01:15:22;92227.94;;;3.21;55.10
20628;BME280;10473;42.734;24.258;2024-03-22T01:17:47;92211.94;;;3.11;54.33
20628;BME280;10473;42.734;24.258;2024-03-22T01:20:13;92203.44;;;2.86;55.63
20628;BME280;10473;42.734;24.258;2024-03-22T01:22:38;92218.31;;;2.99;55.60
20628;BME280;10473;42.734;24.258;2024-03-22T01:25:05;92214.66;;;3.18;53.97
20628;BME280;10473;42.734;24.258;2024-03-22T01:27:31;92225.34;;;3.05;54.82
20628;BME280;10473;42.734;24.258;2024-03-22T01:29:56;92234.56;;;2.81;55.51
20628;BME280;10473;42.734;24.258;2024-03-22T01:32:22;92229.41;;;2.57;56.79
20628;BME280;10473;42.734;24.258;2024-03-22T01:34:47;92231.81;;;2.58;56.91
20628;BME280;10473;42.734;24.258;2024-03-22T01:37:13;92229.59;;;2.63;56.64
20628;BME280;10473;42.734;24.258;2024-03-22T01:39:38;92227.16;;;2.54;56.84
20628;BME280;10473;42.734;24.258;2024-03-22T01:42:04;92220.78;;;2.58;56.96
20628;BME280;10473;42.734;24.258;2024-03-22T01:44:32;92225.28;;;2.64;56.87
20628;BME280;10473;42.734;24.258;2024-03-22T01:46:58;92226.44;;;2.78;56.03
20628;BME280;10473;42.734;24.258;2024-03-22T01:49:25;92218.06;;;2.43;57.29
20628;BME280;10473;42.734;24.258;2024-03-22T01:51:52;92216.22;;;2.27;57.06
20628;BME280;10473;42.734;24.258;2024-03-22T01:54:19;92227.50;;;2.16;57.63
20628;BME280;10473;42.734;24.258;2024-03-22T01:56:45;92215.50;;;2.51;56.80
20628;BME280;10473;42.734;24.258;2024-03-22T01:59:12;92214.69;;;2.42;56.96
20628;BME280;10473;42.734;24.258;2024-03-22T02:01:38;92211.00;;;2.45;56.61
20628;BME280;10473;42.734;24.258;2024-03-22T02:04:04;92222.47;;;2.33;57.30
20628;BME280;10473;42.734;24.258;2024-03-22T02:06:29;92225.69;;;2.35;57.60
20628;BME280;10473;42.734;24.258;2024-03-22T02:08:56;92221.44;;;2.09;58.27
20628;BME280;10473;42.734;24.258;2024-03-22T02:11:22;92226.09;;;2.22;58.65
20628;BME280;10473;42.734;24.258;2024-03-22T02:13:48;92215.84;;;2.14;58.86
20628;BME280;10473;42.734;24.258;2024-03-22T02:16:14;92228.47;;;2.15;59.31
20628;BME280;10473;42.734;24.258;2024-03-22T02:18:39;92224.38;;;2.31;59.11
20628;BME280;10473;42.734;24.258;2024-03-22T02:21:05;92224.16;;;2.16;59.38
20628;BME280;10473;42.734;24.258;2024-03-22T02:23:34;92230.25;;;2.23;59.39
20628;BME280;10473;42.734;24.258;2024-03-22T02:26:01;92227.59;;;1.98;60.60
20628;BME280;10473;42.734;24.258;2024-03-22T02:28:27;92228.31;;;2.17;59.59
20628;BME280;10473;42.734;24.258;2024-03-22T02:30:52;92222.72;;;2.13;60.15
20628;BME280;10473;42.734;24.258;2024-03-22T02:33:18;92231.13;;;2.05;59.82
20628;BME280;10473;42.734;24.258;2024-03-22T02:35:48;92237.53;;;2.10;60.50
20628;BME280;10473;42.734;24.258;2024-03-22T02:38:14;92236.53;;;2.02;60.89
20628;BME280;10473;42.734;24.258;2024-03-22T02:40:40;92237.84;;;2.07;60.73
20628;BME280;10473;42.734;24.258;2024-03-22T02:43:06;92230.09;;;1.90;61.55
20628;BME280;10473;42.734;24.258;2024-03-22T02:45:34;92244.34;;;2.01;61.97
20628;BME280;10473;42.734;24.258;2024-03-22T02:47:59;92241.75;;;1.93;62.12
20628;BME280;10473;42.734;24.258;2024-03-22T02:50:25;92242.91;;;1.98;61.50
20628;BME280;10473;42.734;24.258;2024-03-22T02:52:50;92249.47;;;1.75;62.68
20628;BME280;10473;42.734;24.258;2024-03-22T02:55:16;92242.59;;;2.01;61.82
20628;BME280;10473;42.734;24.258;2024-03-22T02:57:42;92242.94;;;2.07;61.33
20628;BME280;10473;42.734;24.258;2024-03-22T03:00:08;92250.72;;;2.31;61.41
20628;BME280;10473;42.734;24.258;2024-03-22T03:02:34;92253.94;;;2.07;63.09
20628;BME280;10473;42.734;24.258;2024-03-22T03:05:00;92256.97;;;1.76;63.63
20628;BME280;10473;42.734;24.258;2024-03-22T03:07:26;92257.66;;;1.60;64.19
20628;BME280;10473;42.734;24.258;2024-03-22T03:09:51;92260.75;;;1.72;63.92
20628;BME280;10473;42.734;24.258;2024-03-22T03:12:17;92261.94;;;1.78;63.71
20628;BME280;10473;42.734;24.258;2024-03-22T03:14:42;92253.00;;;1.82;64.29
20628;BME280;10473;42.734;24.258;2024-03-22T03:17:08;92251.09;;;1.58;64.89
20628;BME280;10473;42.734;24.258;2024-03-22T03:19:34;92254.41;;;1.76;64.38
20628;BME280;10473;42.734;24.258;2024-03-22T03:21:59;92255.66;;;1.72;64.78
20628;BME280;10473;42.734;24.258;2024-03-22T03:24:28;92248.66;;;1.48;65.96
20628;BME280;10473;42.734;24.258;2024-03-22T03:26:53;92256.13;;;1.68;65.97
20628;BME280;10473;42.734;24.258;2024-03-22T03:29:19;92243.44;;;1.58;65.64
20628;BME280;10473;42.734;24.258;2024-03-22T03:31:45;92246.72;;;1.68;64.98
20628;BME280;10473;42.734;24.258;2024-03-22T03:34:10;92258.13;;;1.38;66.64
20628;BME280;10473;42.734;24.258;2024-03-22T03:36:36;92253.47;;;1.33;66.19
20628;BME280;10473;42.734;24.258;2024-03-22T03:39:01;92257.34;;;1.37;66.70
20628;BME280;10473;42.734;24.258;2024-03-22T03:41:28;92249.38;;;1.58;66.50
20628;BME280;10473;42.734;24.258;2024-03-22T03:43:53;92266.63;;;1.47;67.30
20628;BME280;10473;42.734;24.258;2024-03-22T03:46:19;92255.22;;;1.33;66.86
20628;BME280;10473;42.734;24.258;2024-03-22T03:48:44;92262.06;;;1.50;66.36
20628;BME280;10473;42.734;24.258;2024-03-22T03:51:13;92250.91;;;1.51;66.23
20628;BME280;10473;42.734;24.258;2024-03-22T03:53:38;92258.91;;;1.38;67.32
20628;BME280;10473;42.734;24.258;2024-03-22T03:56:04;92262.63;;;1.44;66.59
20628;BME280;10473;42.734;24.258;2024-03-22T03:58:29;92264.00;;;1.56;67.03
20628;BME280;10473;42.734;24.258;2024-03-22T04:00:55;92261.47;;;1.38;67.03
20628;BME280;10473;42.734;24.258;2024-03-22T04:03:20;92268.41;;;1.46;66.33
20628;BME280;10473;42.734;24.258;2024-03-22T04:05:46;92270.88;;;1.38;67.48
20628;BME280;10473;42.734;24.258;2024-03-22T04:08:11;92268.16;;;1.57;66.89
20628;BME280;10473;42.734;24.258;2024-03-22T04:10:37;92279.28;;;1.30;68.11
20628;BME280;10473;42.734;24.258;2024-03-22T04:13:03;92265.78;;;1.38;67.78
20628;BME280;10473;42.734;24.258;2024-03-22T04:15:28;92268.41;;;1.28;68.82
20628;BME280;10473;42.734;24.258;2024-03-22T04:17:56;92263.63;;;1.51;66.87
20628;BME280;10473;42.734;24.258;2024-03-22T04:20:22;92257.94;;;1.13;68.03
20628;BME280;10473;42.734;24.258;2024-03-22T04:22:47;92281.66;;;1.14;67.64
20628;BME280;10473;42.734;24.258;2024-03-22T04:25:17;92276.44;;;1.15;68.22
20628;BME280;10473;42.734;24.258;2024-03-22T04:27:43;92265.31;;;1.42;66.99
20628;BME280;10473;42.734;24.258;2024-03-22T04:30:09;92271.09;;;1.27;67.83
20628;BME280;10473;42.734;24.258;2024-03-22T04:32:38;92283.91;;;1.35;68.29
20628;BME280;10473;42.734;24.258;2024-03-22T04:35:03;92278.75;;;1.27;67.18
20628;BME280;10473;42.734;24.258;2024-03-22T04:37:29;92281.56;;;1.23;67.71
20628;BME280;10473;42.734;24.258;2024-03-22T04:39:55;92288.59;;;1.21;68.32
20628;BME280;10473;42.734;24.258;2024-03-22T04:42:20;92295.72;;;1.36;67.65
20628;BME280;10473;42.734;24.258;2024-03-22T04:44:46;92300.22;;;1.42;67.66
20628;BME280;10473;42.734;24.258;2024-03-22T04:47:11;92288.16;;;1.26;68.65
20628;BME280;10473;42.734;24.258;2024-03-22T04:49:37;92295.69;;;1.54;67.46
20628;BME280;10473;42.734;24.258;2024-03-22T04:52:02;92299.72;;;1.56;68.04
20628;BME280;10473;42.734;24.258;2024-03-22T04:54:28;92300.06;;;1.61;67.04
20628;BME280;10473;42.734;24.258;2024-03-22T04:56:54;92291.25;;;1.56;67.67
20628;BME280;10473;42.734;24.258;2024-03-22T04:59:19;92286.06;;;1.66;66.90
20628;BME280;10473;42.734;24.258;2024-03-22T05:01:45;92301.25;;;1.75;67.88
20628;BME280;10473;42.734;24.258;2024-03-22T05:04:10;92298.97;;;2.16;65.96
20628;BME280;10473;42.734;24.258;2024-03-22T05:06:36;92305.44;;;2.63;65.74
20628;BME280;10473;42.734;24.258;2024-03-22T05:09:04;92289.53;;;2.85;64.23
20628;BME280;10473;42.734;24.258;2024-03-22T05:11:30;92296.97;;;3.38;62.91
20628;BME280;10473;42.734;24.258;2024-03-22T05:14:00;92284.66;;;3.66;61.89
20628;BME280;10473;42.734;24.258;2024-03-22T05:16:25;92304.16;;;3.34;62.47
20628;BME280;10473;42.734;24.258;2024-03-22T05:18:51;92307.28;;;3.03;64.04
20628;BME280;10473;42.734;24.258;2024-03-22T05:21:17;92298.09;;;3.84;61.10
20628;BME280;10473;42.734;24.258;2024-03-22T05:23:42;92299.72;;;4.58;59.41
20628;BME280;10473;42.734;24.258;2024-03-22T05:26:08;92304.47;;;5.08;58.22
20628;BME280;10473;42.734;24.258;2024-03-22T05:28:33;92305.59;;;5.60;56.40
20628;BME280;10473;42.734;24.258;2024-03-22T05:30:59;92294.44;;;5.91;55.33
20628;BME280;10473;42.734;24.258;2024-03-22T05:33:24;92304.56;;;5.69;56.33
20628;BME280;10473;42.734;24.258;2024-03-22T05:35:50;92306.59;;;5.74;55.94
20628;BME280;10473;42.734;24.258;2024-03-22T05:38:15;92306.81;;;5.87;55.83
20628;BME280;10473;42.734;24.258;2024-03-22T05:40:41;92305.91;;;5.80;55.22
20628;BME280;10473;42.734;24.258;2024-03-22T05:43:06;92312.94;;;5.09;58.13
20628;BME280;10473;42.734;24.258;2024-03-22T05:45:32;92312.31;;;5.84;56.17
20628;BME280;10473;42.734;24.258;2024-03-22T05:47:57;92313.38;;;6.13;55.05
20628;BME280;10473;42.734;24.258;2024-03-22T05:50:23;92308.53;;;6.18;54.08
20628;BME280;10473;42.734;24.258;2024-03-22T05:52:48;92310.38;;;6.24;54.49
20628;BME280;10473;42.734;24.258;2024-03-22T05:55:14;92311.50;;;6.74;53.15
20628;BME280;10473;42.734;24.258;2024-03-22T05:57:39;92316.09;;;6.11;54.25
20628;BME280;10473;42.734;24.258;2024-03-22T06:00:05;92320.44;;;6.64;53.69
20628;BME280;10473;42.734;24.258;2024-03-22T06:02:32;92326.81;;;6.53;53.50
20628;BME280;10473;42.734;24.258;2024-03-22T06:04:58;92329.56;;;6.66;52.38
20628;BME280;10473;42.734;24.258;2024-03-22T06:07:24;92334.31;;;6.25;53.74
20628;BME280;10473;42.734;24.258;2024-03-22T06:09:51;92331.06;;;6.61;53.16
20628;BME280;10473;42.734;24.258;2024-03-22T06:12:20;92326.72;;;6.46;51.90
20628;BME280;10473;42.734;24.258;2024-03-22T06:14:47;92339.75;;;6.89;50.91
20628;BME280;10473;42.734;24.258;2024-03-22T06:17:16;92335.34;;;7.19;50.37
20628;BME280;10473;42.734;24.258;2024-03-22T06:19:42;92335.81;;;7.23;51.11
20628;BME280;10473;42.734;24.258;2024-03-22T06:22:07;92342.41;;;6.51;51.94
20628;BME280;10473;42.734;24.258;2024-03-22T06:24:36;92332.91;;;7.11;51.99
20628;BME280;10473;42.734;24.258;2024-03-22T06:27:01;92338.72;;;7.56;49.97
20628;BME280;10473;42.734;24.258;2024-03-22T06:29:28;92327.53;;;7.28;50.49
20628;BME280;10473;42.734;24.258;2024-03-22T06:31:56;92326.78;;;6.97;52.68
20628;BME280;10473;42.734;24.258;2024-03-22T06:34:22;92336.84;;;7.65;49.82
20628;BME280;10473;42.734;24.258;2024-03-22T06:36:50;92332.75;;;7.92;51.36
20628;BME280;10473;42.734;24.258;2024-03-22T06:39:16;92330.22;;;8.20;48.27
20628;BME280;10473;42.734;24.258;2024-03-22T06:41:42;92334.03;;;8.81;47.57
20628;BME280;10473;42.734;24.258;2024-03-22T06:44:07;92335.72;;;9.02;46.30
20628;BME280;10473;42.734;24.258;2024-03-22T06:46:37;92338.72;;;8.71;47.50
20628;BME280;10473;42.734;24.258;2024-03-22T06:49:02;92332.84;;;8.49;46.41
20628;BME280;10473;42.734;24.258;2024-03-22T06:51:28;92344.34;;;7.81;48.72
20628;BME280;10473;42.734;24.258;2024-03-22T06:53:53;92352.44;;;7.57;48.16
20628;BME280;10473;42.734;24.258;2024-03-22T06:56:22;92345.16;;;7.46;48.40
20628;BME280;10473;42.734;24.258;2024-03-22T06:58:47;92342.66;;;7.52;49.48
20628;BME280;10473;42.734;24.258;2024-03-22T07:01:13;92338.34;;;7.96;47.54
20628;BME280;10473;42.734;24.258;2024-03-22T07:03:38;92334.63;;;8.27;46.60
20628;BME280;10473;42.734;24.258;2024-03-22T07:06:07;92333.72;;;8.62;45.99
20628;BME280;10473;42.734;24.258;2024-03-22T07:08:35;92316.97;;;8.87;45.09
20628;BME280;10473;42.734;24.258;2024-03-22T07:11:07;92334.69;;;9.38;45.63
20628;BME280;10473;42.734;24.258;2024-03-22T07:13:33;92321.63;;;9.53;44.08
20628;BME280;10473;42.734;24.258;2024-03-22T07:16:03;92334.59;;;9.11;44.90
20628;BME280;10473;42.734;24.258;2024-03-22T07:18:32;92344.78;;;8.91;45.83
20628;BME280;10473;42.734;24.258;2024-03-22T07:20:57;92338.69;;;8.99;45.88
20628;BME280;10473;42.734;24.258;2024-03-22T07:23:27;92340.03;;;9.36;44.70
20628;BME280;10473;42.734;24.258;2024-03-22T07:25:53;92340.84;;;9.37;45.07
20628;BME280;10473;42.734;24.258;2024-03-22T07:28:18;92333.41;;;9.82;44.24
20628;BME280;10473;42.734;24.258;2024-03-22T07:30:44;92334.41;;;9.87;43.37
20628;BME280;10473;42.734;24.258;2024-03-22T07:33:13;92335.66;;;10.18;40.80
20628;BME280;10473;42.734;24.258;2024-03-22T07:35:39;92328.88;;;10.04;42.94
20628;BME280;10473;42.734;24.258;2024-03-22T07:38:05;92340.81;;;10.12;43.47
20628;BME280;10473;42.734;24.258;2024-03-22T07:40:33;92334.44;;;10.14;42.21
20628;BME280;10473;42.734;24.258;2024-03-22T07:42:59;92319.38;;;10.38;41.76
20628;BME280;10473;42.734;24.258;2024-03-22T07:45:24;92327.59;;;9.53;42.59
20628;BME280;10473;42.734;24.258;2024-03-22T07:47:53;92335.72;;;9.50;42.85
20628;BME280;10473;42.734;24.258;2024-03-22T07:50:19;92328.84;;;9.97;43.62
20628;BME280;10473;42.734;24.258;2024-03-22T07:52:44;92332.09;;;11.83;39.18
20628;BME280;10473;42.734;24.258;2024-03-22T07:55:10;92323.38;;;11.32;37.44
20628;BME280;10473;42.734;24.258;2024-03-22T07:57:38;92324.69;;;10.89;38.75
20628;BME280;10473;42.734;24.258;2024-03-22T08:00:04;92322.28;;;11.46;38.48
20628;BME280;10473;42.734;24.258;2024-03-22T08:02:30;92336.75;;;11.67;38.50
20628;BME280;10473;42.734;24.258;2024-03-22T08:04:57;92337.25;;;11.89;34.47
20628;BME280;10473;42.734;24.258;2024-03-22T08:07:23;92334.28;;;12.18;35.86
20628;BME280;10473;42.734;24.258;2024-03-22T08:09:48;92333.81;;;12.78;34.81
20628;BME280;10473;42.734;24.258;2024-03-22T08:12:14;92325.41;;;12.57;36.01
20628;BME280;10473;42.734;24.258;2024-03-22T08:14:39;92330.03;;;11.53;34.99
20628;BME280;10473;42.734;24.258;2024-03-22T08:17:07;92324.88;;;11.91;35.55
20628;BME280;10473;42.734;24.258;2024-03-22T08:19:34;92335.59;;;12.02;35.22
20628;BME280;10473;42.734;24.258;2024-03-22T08:22:00;92340.88;;;11.88;34.57
20628;BME280;10473;42.734;24.258;2024-03-22T08:24:25;92329.19;;;12.36;37.95
20628;BME280;10473;42.734;24.258;2024-03-22T08:26:51;92329.09;;;12.93;33.48
20628;BME280;10473;42.734;24.258;2024-03-22T08:29:20;92337.28;;;12.90;34.00
20628;BME280;10473;42.734;24.258;2024-03-22T08:31:48;92327.59;;;12.03;33.69
20628;BME280;10473;42.734;24.258;2024-03-22T08:34:13;92328.31;;;11.34;35.46
20628;BME280;10473;42.734;24.258;2024-03-22T08:36:39;92332.22;;;11.95;34.93
20628;BME280;10473;42.734;24.258;2024-03-22T08:39:04;92336.16;;;12.10;33.80
20628;BME280;10473;42.734;24.258;2024-03-22T08:41:35;92331.28;;;11.82;33.50
20628;BME280;10473;42.734;24.258;2024-03-22T08:44:00;92335.25;;;11.85;35.57
20628;BME280;10473;42.734;24.258;2024-03-22T08:46:26;92332.13;;;12.15;32.58
20628;BME280;10473;42.734;24.258;2024-03-22T08:48:53;92334.41;;;12.29;33.40
20628;BME280;10473;42.734;24.258;2024-03-22T08:51:20;92323.66;;;11.94;32.92
20628;BME280;10473;42.734;24.258;2024-03-22T08:53:46;92338.84;;;10.80;34.46
20628;BME280;10473;42.734;24.258;2024-03-22T08:56:11;92341.44;;;10.80;35.57
20628;BME280;10473;42.734;24.258;2024-03-22T08:58:39;92334.47;;;10.67;34.83
20628;BME280;10473;42.734;24.258;2024-03-22T09:01:05;92342.00;;;10.96;36.15
20628;BME280;10473;42.734;24.258;2024-03-22T09:03:31;92330.00;;;11.08;35.21
20628;BME280;10473;42.734;24.258;2024-03-22T09:05:57;92332.13;;;11.31;34.54
20628;BME280;10473;42.734;24.258;2024-03-22T09:08:23;92337.06;;;11.39;34.57
20628;BME280;10473;42.734;24.258;2024-03-22T09:10:49;92339.47;;;11.41;34.40
20628;BME280;10473;42.734;24.258;2024-03-22T09:13:14;92331.56;;;11.16;36.40
20628;BME280;10473;42.734;24.258;2024-03-22T09:15:40;92333.13;;;11.30;35.45
20628;BME280;10473;42.734;24.258;2024-03-22T09:18:05;92325.44;;;12.00;37.54
20628;BME280;10473;42.734;24.258;2024-03-22T09:20:31;92330.75;;;11.28;35.13
20628;BME280;10473;42.734;24.258;2024-03-22T09:22:57;92330.47;;;11.95;35.41
20628;BME280;10473;42.734;24.258;2024-03-22T09:25:26;92322.91;;;11.42;34.53
20628;BME280;10473;42.734;24.258;2024-03-22T09:27:52;92308.09;;;11.56;35.20
20628;BME280;10473;42.734;24.258;2024-03-22T09:30:18;92323.06;;;11.02;34.78
20628;BME280;10473;42.734;24.258;2024-03-22T09:32:44;92327.91;;;10.72;35.32
20628;BME280;10473;42.734;24.258;2024-03-22T09:35:09;92331.69;;;10.76;34.99
20628;BME280;10473;42.734;24.258;2024-03-22T09:37:36;92320.50;;;10.82;35.00
20628;BME280;10473;42.734;24.258;2024-03-22T09:40:01;92331.50;;;10.57;36.01
20628;BME280;10473;42.734;24.258;2024-03-22T09:42:32;92324.25;;;10.99;35.33
20628;BME280;10473;42.734;24.258;2024-03-22T09:45:00;92326.16;;;11.76;35.16
20628;BME280;10473;42.734;24.258;2024-03-22T09:47:27;92322.88;;;11.94;32.49
20628;BME280;10473;42.734;24.258;2024-03-22T09:49:53;92327.78;;;12.59;31.61
20628;BME280;10473;42.734;24.258;2024-03-22T09:52:20;92322.94;;;11.80;33.26
20628;BME280;10473;42.734;24.258;2024-03-22T09:54:46;92314.56;;;11.78;33.57
20628;BME280;10473;42.734;24.258;2024-03-22T09:57:14;92313.03;;;12.34;33.80
20628;BME280;10473;42.734;24.258;2024-03-22T09:59:41;92333.44;;;11.47;34.94
20628;BME280;10473;42.734;24.258;2024-03-22T10:02:09;92315.44;;;11.20;35.28
20628;BME280;10473;42.734;24.258;2024-03-22T10:04:36;92332.72;;;12.17;33.35
20628;BME280;10473;42.734;24.258;2024-03-22T10:07:02;92328.00;;;11.62;32.96
20628;BME280;10473;42.734;24.258;2024-03-22T10:09:29;92323.75;;;11.29;33.51
20628;BME280;10473;42.734;24.258;2024-03-22T10:11:58;92320.13;;;11.43;33.78
20628;BME280;10473;42.734;24.258;2024-03-22T10:14:23;92331.31;;;11.37;32.09
20628;BME280;10473;42.734;24.258;2024-03-22T10:16:55;92313.41;;;11.29;33.75
20628;BME280;10473;42.734;24.258;2024-03-22T10:19:21;92316.22;;;11.21;33.57
20628;BME280;10473;42.734;24.258;2024-03-22T10:21:58;92310.88;;;11.16;34.42
20628;BME280;10473;42.734;24.258;2024-03-22T10:24:24;92311.56;;;10.78;34.15
20628;BME280;10473;42.734;24.258;2024-03-22T10:26:52;92299.00;;;10.81;34.25
20628;BME280;10473;42.734;24.258;2024-03-22T10:29:18;92305.78;;;10.82;34.39
20628;BME280;10473;42.734;24.258;2024-03-22T10:31:45;92314.00;;;11.31;34.17
20628;BME280;10473;42.734;24.258;2024-03-22T10:34:13;92308.84;;;11.69;33.06
20628;BME280;10473;42.734;24.258;2024-03-22T10:36:39;92287.78;;;11.52;32.80
20628;BME280;10473;42.734;24.258;2024-03-22T10:39:05;92303.22;;;12.11;31.17
20628;BME280;10473;42.734;24.258;2024-03-22T10:41:32;92286.97;;;12.22;29.90
20628;BME280;10473;42.734;24.258;2024-03-22T10:43:57;92293.09;;;11.71;33.65
20628;BME280;10473;42.734;24.258;2024-03-22T10:46:31;92295.47;;;12.36;31.48
20628;BME280;10473;42.734;24.258;2024-03-22T10:48:57;92286.28;;;12.77;31.45
20628;BME280;10473;42.734;24.258;2024-03-22T10:51:26;92286.06;;;12.10;33.07
20628;BME280;10473;42.734;24.258;2024-03-22T10:53:54;92284.22;;;11.85;30.79
20628;BME280;10473;42.734;24.258;2024-03-22T10:56:21;92283.78;;;11.12;34.25
20628;BME280;10473;42.734;24.258;2024-03-22T10:58:48;92287.97;;;11.19;33.35
20628;BME280;10473;42.734;24.258;2024-03-22T11:01:25;92283.56;;;10.21;36.17
20628;BME280;10473;42.734;24.258;2024-03-22T11:04:03;92261.69;;;10.44;34.61
20628;BME280;10473;42.734;24.258;2024-03-22T11:06:30;92275.53;;;10.76;33.46
20628;BME280;10473;42.734;24.258;2024-03-22T11:08:59;92280.69;;;10.89;34.50
20628;BME280;10473;42.734;24.258;2024-03-22T11:11:28;92278.00;;;10.38;33.05
20628;BME280;10473;42.734;24.258;2024-03-22T11:13:55;92276.78;;;10.14;34.44
20628;BME280;10473;42.734;24.258;2024-03-22T11:16:21;92267.66;;;9.98;34.52
20628;BME280;10473;42.734;24.258;2024-03-22T11:18:47;92266.44;;;10.20;35.61
20628;BME280;10473;42.734;24.258;2024-03-22T11:21:14;92263.47;;;10.43;35.47
20628;BME280;10473;42.734;24.258;2024-03-22T11:23:40;92267.66;;;10.38;36.08
20628;BME280;10473;42.734;24.258;2024-03-22T11:26:09;92263.03;;;11.25;35.38
20628;BME280;10473;42.734;24.258;2024-03-22T11:28:35;92250.72;;;11.84;33.45
20628;BME280;10473;42.734;24.258;2024-03-22T11:31:04;92236.84;;;12.53;32.94
20628;BME280;10473;42.734;24.258;2024-03-22T11:33:32;92253.44;;;12.46;31.99
20628;BME280;10473;42.734;24.258;2024-03-22T11:35:59;92242.66;;;11.99;32.48
20628;BME280;10473;42.734;24.258;2024-03-22T11:38:26;92240.41;;;12.52;31.45
20628;BME280;10473;42.734;24.258;2024-03-22T11:40:52;92238.19;;;13.30;30.79
20628;BME280;10473;42.734;24.258;2024-03-22T11:43:19;92245.34;;;13.76;30.92
20628;BME280;10473;42.734;24.258;2024-03-22T11:45:45;92249.09;;;13.81;29.40
20628;BME280;10473;42.734;24.258;2024-03-22T11:48:14;92228.91;;;14.06;29.04
20628;BME280;10473;42.734;24.258;2024-03-22T11:50:39;92236.88;;;14.23;30.80
20628;BME280;10473;42.734;24.258;2024-03-22T11:53:05;92247.19;;;13.88;29.64
20628;BME280;10473;42.734;24.258;2024-03-22T11:55:32;92237.63;;;14.00;29.02
20628;BME280;10473;42.734;24.258;2024-03-22T11:57:58;92235.66;;;13.23;30.30
20628;BME280;10473;42.734;24.258;2024-03-22T12:00:24;92239.25;;;13.22;30.55
20628;BME280;10473;42.734;24.258;2024-03-22T12:02:50;92235.16;;;12.96;31.79
20628;BME280;10473;42.734;24.258;2024-03-22T12:05:20;92229.97;;;13.33;31.25
20628;BME280;10473;42.734;24.258;2024-03-22T12:07:46;92237.56;;;13.76;29.12
20628;BME280;10473;42.734;24.258;2024-03-22T12:10:14;92227.59;;;13.13;29.82
20628;BME280;10473;42.734;24.258;2024-03-22T12:12:40;92225.09;;;12.01;32.43
20628;BME280;10473;42.734;24.258;2024-03-22T12:15:06;92233.59;;;12.15;32.15
20628;BME280;10473;42.734;24.258;2024-03-22T12:17:34;92227.69;;;12.69;31.44
20628;BME280;10473;42.734;24.258;2024-03-22T12:20:02;92220.88;;;13.05;29.78
20628;BME280;10473;42.734;24.258;2024-03-22T12:22:30;92222.56;;;13.48;30.26
20628;BME280;10473;42.734;24.258;2024-03-22T12:24:55;92214.34;;;12.84;31.75
20628;BME280;10473;42.734;24.258;2024-03-22T12:27:21;92218.75;;;12.84;33.79
20628;BME280;10473;42.734;24.258;2024-03-22T12:29:49;92216.00;;;12.97;31.52
20628;BME280;10473;42.734;24.258;2024-03-22T12:32:15;92210.47;;;13.05;31.55
20628;BME280;10473;42.734;24.258;2024-03-22T12:34:40;92206.59;;;12.96;31.55
20628;BME280;10473;42.734;24.258;2024-03-22T12:37:06;92211.66;;;12.54;30.47
20628;BME280;10473;42.734;24.258;2024-03-22T12:39:32;92211.63;;;12.17;33.41
20628;BME280;10473;42.734;24.258;2024-03-22T12:42:01;92213.38;;;12.42;32.53
20628;BME280;10473;42.734;24.258;2024-03-22T12:44:27;92209.41;;;12.39;31.86
20628;BME280;10473;42.734;24.258;2024-03-22T12:46:52;92197.16;;;12.46;32.00
20628;BME280;10473;42.734;24.258;2024-03-22T12:49:19;92205.22;;;11.95;32.49